PWSweather.com
Personal Weather Stations
Station Observations
CEPLANZA
Titerroy, ArrecifeES 35500

TiterroyArrecifeES 35500

Lat: 28.968073, Lon: -13.554033

Elevation: 6

Station Type: PCE-FWS 20

http://ceplanzarote.es/tic

Latest ConditionsUpdated 6:00:00 PM GMT Tuesday, Jun 18, 2019
Currently Today's Max Today's Min Today's Average
Temperature 75.7°F24.3°C 77.5°F25.3°C 64.8°F18.2°C 70.9°F21.6°C
Dew Point 64.8°F18.2°C 65.3°F18.5°C 58.8°F14.9°C 61.8°F16.6°C
Winds 2.2 mph S3.5 kmh S 6.0 mph -9.7 kmh - - 2.5 mph 4.0 kmh
Wind Gusts 3.8 mph6.1 kmh 10.7 mph17.2 kmh - -
Humidity 69% 82% 60% 73%
Pressure 29.88 in1011.9 mb 29.93 in1013.5 mb 29.85 in1010.8 mb -
Hour Temp Dew Point Humidity Winds Wind Gusts Pressure Precip Precip Rate Daily Precip Total
06:00 PM 75.7°F24.3°C 64.8°F18.2°C 69% 2.2 mph S3.5 kmh S 3.8 mph6.1 kmh 29.88 in1011.9 mb 0.00 in0.0 mm 0.00 in0.0 mm 0.00 in0.0 mm
05:45 PM 75.4°F24.1°C 64.5°F18.1°C 69% 1.6 mph S2.6 kmh S 5.4 mph8.7 kmh 29.88 in1011.9 mb 0.00 in0.0 mm 0.00 in0.0 mm 0.00 in0.0 mm
05:30 PM 77.5°F25.3°C 64.4°F18.0°C 64% 6.0 mph SW9.7 kmh SW 7.6 mph12.2 kmh 29.89 in1012.2 mb 0.00 in0.0 mm 0.00 in0.0 mm 0.00 in0.0 mm
05:15 PM 77.5°F25.3°C 65.3°F18.5°C 66% 2.2 mph S3.5 kmh S 5.4 mph8.7 kmh 29.88 in1011.9 mb 0.00 in0.0 mm 0.00 in0.0 mm 0.00 in0.0 mm
05:00 PM 77.0°F25.0°C 65.2°F18.4°C 67% 1.6 mph S2.6 kmh S 3.1 mph5.0 kmh 29.88 in1011.9 mb 0.00 in0.0 mm 0.00 in0.0 mm 0.00 in0.0 mm
04:45 PM 75.2°F24.0°C 64.7°F18.2°C 70% 1.6 mph SSW2.6 kmh SSW 5.4 mph8.7 kmh 29.89 in1012.2 mb 0.00 in0.0 mm 0.00 in0.0 mm 0.00 in0.0 mm
04:30 PM 73.6°F23.1°C 64.0°F17.8°C 72% 2.2 mph SSW3.5 kmh SSW 3.1 mph5.0 kmh 29.90 in1012.5 mb 0.00 in0.0 mm 0.00 in0.0 mm 0.00 in0.0 mm
04:15 PM 72.7°F22.6°C 63.1°F17.3°C 72% 1.6 mph S2.6 kmh S 3.1 mph5.0 kmh 29.90 in1012.5 mb 0.00 in0.0 mm 0.00 in0.0 mm 0.00 in0.0 mm
04:00 PM 72.7°F22.6°C 63.5°F17.5°C 73% 1.6 mph SW2.6 kmh SW 5.4 mph8.7 kmh 29.90 in1012.5 mb 0.00 in0.0 mm 0.00 in0.0 mm 0.00 in0.0 mm
03:45 PM 72.5°F22.5°C 63.0°F17.2°C 72% Calm Calm 6.0 mph9.7 kmh 29.90 in1012.5 mb 0.00 in0.0 mm 0.00 in0.0 mm 0.00 in0.0 mm
03:30 PM 72.7°F22.6°C 62.7°F17.1°C 71% 2.2 mph S3.5 kmh S 6.0 mph9.7 kmh 29.90 in1012.5 mb 0.00 in0.0 mm 0.00 in0.0 mm 0.00 in0.0 mm
03:15 PM 72.5°F22.5°C 62.6°F17.0°C 71% 3.8 mph SSW6.1 kmh SSW 6.9 mph11.1 kmh 29.90 in1012.5 mb 0.00 in0.0 mm 0.00 in0.0 mm 0.00 in0.0 mm
03:00 PM 72.7°F22.6°C 62.7°F17.1°C 71% 3.8 mph S6.1 kmh S 8.3 mph13.4 kmh 29.90 in1012.5 mb 0.00 in0.0 mm 0.00 in0.0 mm 0.00 in0.0 mm
02:45 PM 72.5°F22.5°C 62.6°F17.0°C 71% 3.8 mph S6.1 kmh S 8.3 mph13.4 kmh 29.90 in1012.5 mb 0.00 in0.0 mm 0.00 in0.0 mm 0.00 in0.0 mm
02:30 PM 72.3°F22.4°C 63.6°F17.6°C 74% 3.8 mph S6.1 kmh S 7.6 mph12.2 kmh 29.90 in1012.5 mb 0.00 in0.0 mm 0.00 in0.0 mm 0.00 in0.0 mm
02:15 PM 72.7°F22.6°C 62.7°F17.1°C 71% 5.4 mph S8.7 kmh S 6.9 mph11.1 kmh 29.91 in1012.9 mb 0.00 in0.0 mm 0.00 in0.0 mm 0.00 in0.0 mm
02:00 PM 72.5°F22.5°C 62.6°F17.0°C 71% 4.5 mph SW7.2 kmh SW 6.9 mph11.1 kmh 29.90 in1012.5 mb 0.00 in0.0 mm 0.00 in0.0 mm 0.00 in0.0 mm
01:45 PM 72.7°F22.6°C 63.1°F17.3°C 72% 6.0 mph S9.7 kmh S 7.6 mph12.2 kmh 29.91 in1012.9 mb 0.00 in0.0 mm 0.00 in0.0 mm 0.00 in0.0 mm
01:30 PM 72.5°F22.5°C 63.0°F17.2°C 72% 6.0 mph S9.7 kmh S 8.3 mph13.4 kmh 29.91 in1012.9 mb 0.00 in0.0 mm 0.00 in0.0 mm 0.00 in0.0 mm
01:15 PM 73.0°F22.8°C 63.1°F17.3°C 71% 6.0 mph SSW9.7 kmh SSW 9.2 mph14.8 kmh 29.91 in1012.9 mb 0.00 in0.0 mm 0.00 in0.0 mm 0.00 in0.0 mm
01:00 PM 75.2°F24.0°C 63.9°F17.7°C 68% 4.5 mph S7.2 kmh S 6.0 mph9.7 kmh 29.91 in1012.9 mb 0.00 in0.0 mm 0.00 in0.0 mm 0.00 in0.0 mm
12:45 PM 75.2°F24.0°C 63.9°F17.7°C 68% 3.8 mph SW6.1 kmh SW 7.6 mph12.2 kmh 29.92 in1013.2 mb 0.00 in0.0 mm 0.00 in0.0 mm 0.00 in0.0 mm
12:30 PM 74.8°F23.8°C 64.0°F17.8°C 69% 3.8 mph S6.1 kmh S 6.9 mph11.1 kmh 29.91 in1012.9 mb 0.00 in0.0 mm 0.00 in0.0 mm 0.00 in0.0 mm
12:15 PM 74.8°F23.8°C 64.4°F18.0°C 70% 3.1 mph S5.0 kmh S 6.0 mph9.7 kmh 29.92 in1013.2 mb 0.00 in0.0 mm 0.00 in0.0 mm 0.00 in0.0 mm
12:00 PM 74.7°F23.7°C 64.2°F17.9°C 70% 2.2 mph SSE3.5 kmh SSE 8.3 mph13.4 kmh 29.92 in1013.2 mb 0.00 in0.0 mm 0.00 in0.0 mm 0.00 in0.0 mm
11:45 AM 73.9°F23.3°C 63.5°F17.5°C 70% 3.8 mph S6.1 kmh S 8.3 mph13.4 kmh 29.92 in1013.2 mb 0.00 in0.0 mm 0.00 in0.0 mm 0.00 in0.0 mm
11:30 AM 73.4°F23.0°C 63.0°F17.2°C 70% 5.4 mph S8.7 kmh S 6.9 mph11.1 kmh 29.93 in1013.5 mb 0.00 in0.0 mm 0.00 in0.0 mm 0.00 in0.0 mm
11:15 AM 73.0°F22.8°C 63.1°F17.3°C 71% 2.2 mph S3.5 kmh S 7.6 mph12.2 kmh 29.93 in1013.5 mb 0.00 in0.0 mm 0.00 in0.0 mm 0.00 in0.0 mm
11:00 AM 73.4°F23.0°C 63.4°F17.4°C 71% 3.1 mph S5.0 kmh S 9.2 mph14.8 kmh 29.92 in1013.2 mb 0.00 in0.0 mm 0.00 in0.0 mm 0.00 in0.0 mm
10:45 AM 74.5°F23.6°C 62.8°F17.1°C 67% 3.1 mph S5.0 kmh S 7.6 mph12.2 kmh 29.92 in1013.2 mb 0.00 in0.0 mm 0.00 in0.0 mm 0.00 in0.0 mm
10:30 AM 76.6°F24.8°C 63.1°F17.3°C 63% 3.8 mph S6.1 kmh S 8.3 mph13.4 kmh 29.91 in1012.9 mb 0.00 in0.0 mm 0.00 in0.0 mm 0.00 in0.0 mm
10:15 AM 74.8°F23.8°C 62.3°F16.8°C 65% 2.2 mph SSW3.5 kmh SSW 9.2 mph14.8 kmh 29.91 in1012.9 mb 0.00 in0.0 mm 0.00 in0.0 mm 0.00 in0.0 mm
10:00 AM 75.9°F24.4°C 62.9°F17.2°C 64% 4.5 mph SSW7.2 kmh SSW 7.6 mph12.2 kmh 29.91 in1012.9 mb 0.00 in0.0 mm 0.00 in0.0 mm 0.00 in0.0 mm
09:45 AM 77.0°F25.0°C 63.4°F17.4°C 63% 3.1 mph SW5.0 kmh SW 6.9 mph11.1 kmh 29.91 in1012.9 mb 0.00 in0.0 mm 0.00 in0.0 mm 0.00 in0.0 mm
09:30 AM 77.0°F25.0°C 62.5°F16.9°C 61% 4.5 mph N7.2 kmh N 8.3 mph13.4 kmh 29.91 in1012.9 mb 0.00 in0.0 mm 0.00 in0.0 mm 0.00 in0.0 mm
09:15 AM 77.0°F25.0°C 62.0°F16.7°C 60% 3.8 mph N6.1 kmh N 6.9 mph11.1 kmh 29.91 in1012.9 mb 0.00 in0.0 mm 0.00 in0.0 mm 0.00 in0.0 mm
09:00 AM 77.0°F25.0°C 63.0°F17.2°C 62% 4.5 mph N7.2 kmh N 8.3 mph13.4 kmh 29.91 in1012.9 mb 0.00 in0.0 mm 0.00 in0.0 mm 0.00 in0.0 mm
08:45 AM 75.7°F24.3°C 62.2°F16.8°C 63% 6.0 mph NNE9.7 kmh NNE 10.7 mph17.2 kmh 29.90 in1012.5 mb 0.00 in0.0 mm 0.00 in0.0 mm 0.00 in0.0 mm
08:30 AM 75.6°F24.2°C 63.0°F17.2°C 65% 3.8 mph NE6.1 kmh NE 6.9 mph11.1 kmh 29.90 in1012.5 mb 0.00 in0.0 mm 0.00 in0.0 mm 0.00 in0.0 mm
08:15 AM 74.8°F23.8°C 63.6°F17.6°C 68% 5.4 mph NNE8.7 kmh NNE 6.9 mph11.1 kmh 29.89 in1012.2 mb 0.00 in0.0 mm 0.00 in0.0 mm 0.00 in0.0 mm
08:00 AM 73.9°F23.3°C 63.5°F17.5°C 70% 2.2 mph N3.5 kmh N 6.9 mph11.1 kmh 29.89 in1012.2 mb 0.00 in0.0 mm 0.00 in0.0 mm 0.00 in0.0 mm
07:45 AM 72.3°F22.4°C 63.9°F17.7°C 75% 3.1 mph NNE5.0 kmh NNE 6.0 mph9.7 kmh 29.89 in1012.2 mb 0.00 in0.0 mm 0.00 in0.0 mm 0.00 in0.0 mm
07:30 AM 70.5°F21.4°C 64.4°F18.0°C 81% 1.6 mph SSE2.6 kmh SSE 2.2 mph3.5 kmh 29.88 in1011.9 mb 0.00 in0.0 mm 0.00 in0.0 mm 0.00 in0.0 mm
07:15 AM 68.0°F20.0°C 62.3°F16.8°C 82% 0.7 mph N1.1 kmh N 2.2 mph3.5 kmh 29.88 in1011.9 mb 0.00 in0.0 mm 0.00 in0.0 mm 0.00 in0.0 mm
07:00 AM 67.1°F19.5°C 61.4°F16.3°C 82% Calm Calm 1.6 mph2.6 kmh 29.88 in1011.9 mb 0.00 in0.0 mm 0.00 in0.0 mm 0.00 in0.0 mm
06:45 AM 66.4°F19.1°C 60.7°F15.9°C 82% Calm Calm 1.6 mph2.6 kmh 29.87 in1011.5 mb 0.00 in0.0 mm 0.00 in0.0 mm 0.00 in0.0 mm
06:30 AM 65.7°F18.7°C 60.0°F15.6°C 82% Calm Calm 1.6 mph2.6 kmh 29.87 in1011.5 mb 0.00 in0.0 mm 0.00 in0.0 mm 0.00 in0.0 mm
06:15 AM 65.3°F18.5°C 59.7°F15.4°C 82% Calm Calm 1.6 mph2.6 kmh 29.87 in1011.5 mb 0.00 in0.0 mm 0.00 in0.0 mm 0.00 in0.0 mm
06:00 AM 64.9°F18.3°C 59.3°F15.2°C 82% 1.6 mph N2.6 kmh N 2.2 mph3.5 kmh 29.86 in1011.2 mb 0.00 in0.0 mm 0.00 in0.0 mm 0.00 in0.0 mm
05:45 AM 64.8°F18.2°C 58.8°F14.9°C 81% Calm Calm 1.6 mph2.6 kmh 29.86 in1011.2 mb 0.00 in0.0 mm 0.00 in0.0 mm 0.00 in0.0 mm
05:30 AM 64.8°F18.2°C 58.8°F14.9°C 81% 1.6 mph N2.6 kmh N 3.8 mph6.1 kmh 29.86 in1011.2 mb 0.00 in0.0 mm 0.00 in0.0 mm 0.00 in0.0 mm
05:15 AM 64.9°F18.3°C 59.0°F15.0°C 81% 2.2 mph N3.5 kmh N 3.8 mph6.1 kmh 29.86 in1011.2 mb 0.00 in0.0 mm 0.00 in0.0 mm 0.00 in0.0 mm
05:00 AM 65.1°F18.4°C 59.1°F15.1°C 81% 1.6 mph NNE2.6 kmh NNE 3.8 mph6.1 kmh 29.86 in1011.2 mb 0.00 in0.0 mm 0.00 in0.0 mm 0.00 in0.0 mm
04:45 AM 64.9°F18.3°C 59.0°F15.0°C 81% 0.7 mph N1.1 kmh N 1.6 mph2.6 kmh 29.85 in1010.8 mb 0.00 in0.0 mm 0.00 in0.0 mm 0.00 in0.0 mm
04:30 AM 64.9°F18.3°C 59.0°F15.0°C 81% 0.7 mph N1.1 kmh N 1.6 mph2.6 kmh 29.85 in1010.8 mb 0.00 in0.0 mm 0.00 in0.0 mm 0.00 in0.0 mm
04:15 AM 65.1°F18.4°C 59.1°F15.1°C 81% Calm Calm 2.2 mph3.5 kmh 29.85 in1010.8 mb 0.00 in0.0 mm 0.00 in0.0 mm 0.00 in0.0 mm
04:00 AM 65.5°F18.6°C 59.5°F15.3°C 81% 0.7 mph N1.1 kmh N 2.2 mph3.5 kmh 29.85 in1010.8 mb 0.00 in0.0 mm 0.00 in0.0 mm 0.00 in0.0 mm
03:45 AM 65.7°F18.7°C 59.7°F15.4°C 81% 0.7 mph N1.1 kmh N 2.2 mph3.5 kmh 29.85 in1010.8 mb 0.00 in0.0 mm 0.00 in0.0 mm 0.00 in0.0 mm
03:30 AM 65.8°F18.8°C 59.5°F15.3°C 80% 0.7 mph NW1.1 kmh NW 2.2 mph3.5 kmh 29.85 in1010.8 mb 0.00 in0.0 mm 0.00 in0.0 mm 0.00 in0.0 mm
03:15 AM 66.2°F19.0°C 59.8°F15.4°C 80% 0.7 mph NNE1.1 kmh NNE 3.1 mph5.0 kmh 29.85 in1010.8 mb 0.00 in0.0 mm 0.00 in0.0 mm 0.00 in0.0 mm
03:00 AM 66.2°F19.0°C 59.8°F15.4°C 80% 1.6 mph N2.6 kmh N 5.4 mph8.7 kmh 29.86 in1011.2 mb 0.00 in0.0 mm 0.00 in0.0 mm 0.00 in0.0 mm
02:45 AM 66.0°F18.9°C 59.7°F15.4°C 80% 1.6 mph N2.6 kmh N 3.8 mph6.1 kmh 29.86 in1011.2 mb 0.00 in0.0 mm 0.00 in0.0 mm 0.00 in0.0 mm
02:30 AM 66.2°F19.0°C 59.8°F15.4°C 80% 1.6 mph NNW2.6 kmh NNW 3.1 mph5.0 kmh 29.86 in1011.2 mb 0.00 in0.0 mm 0.00 in0.0 mm 0.00 in0.0 mm
02:15 AM 66.4°F19.1°C 60.0°F15.6°C 80% 2.2 mph NNE3.5 kmh NNE 4.5 mph7.2 kmh 29.86 in1011.2 mb 0.00 in0.0 mm 0.00 in0.0 mm 0.00 in0.0 mm
02:00 AM 66.7°F19.3°C 60.0°F15.6°C 79% 3.1 mph N5.0 kmh N 5.4 mph8.7 kmh 29.87 in1011.5 mb 0.00 in0.0 mm 0.00 in0.0 mm 0.00 in0.0 mm
01:45 AM 66.7°F19.3°C 59.3°F15.2°C 77% 2.2 mph N3.5 kmh N 4.5 mph7.2 kmh 29.88 in1011.9 mb 0.00 in0.0 mm 0.00 in0.0 mm 0.00 in0.0 mm
01:30 AM 66.6°F19.2°C 59.1°F15.1°C 77% 1.6 mph N2.6 kmh N 3.8 mph6.1 kmh 29.88 in1011.9 mb 0.00 in0.0 mm 0.00 in0.0 mm 0.00 in0.0 mm
01:15 AM 66.6°F19.2°C 59.1°F15.1°C 77% 2.2 mph N3.5 kmh N 4.5 mph7.2 kmh 29.89 in1012.2 mb 0.00 in0.0 mm 0.00 in0.0 mm 0.00 in0.0 mm
01:00 AM 66.7°F19.3°C 58.9°F14.9°C 76% 3.1 mph NNE5.0 kmh NNE 4.5 mph7.2 kmh 29.89 in1012.2 mb 0.00 in0.0 mm 0.00 in0.0 mm 0.00 in0.0 mm
12:45 AM 66.7°F19.3°C 58.9°F14.9°C 76% 2.2 mph NNE3.5 kmh NNE 3.1 mph5.0 kmh 29.89 in1012.2 mb 0.00 in0.0 mm 0.00 in0.0 mm 0.00 in0.0 mm
12:30 AM 66.6°F19.2°C 59.1°F15.1°C 77% 0.7 mph NNE1.1 kmh NNE 2.2 mph3.5 kmh 29.90 in1012.5 mb 0.00 in0.0 mm 0.00 in0.0 mm 0.00 in0.0 mm
12:15 AM 66.9°F19.4°C 59.5°F15.3°C 77% Calm Calm -- 29.90 in1012.5 mb 0.00 in0.0 mm 0.00 in0.0 mm 0.00 in0.0 mm
12:00 AM 67.1°F19.5°C 59.3°F15.2°C 76% Calm Calm 0.7 mph1.1 kmh 29.91 in1012.9 mb 0.00 in0.0 mm 0.00 in0.0 mm 0.00 in0.0 mm